Time;durP1;ratioP1;P1;durP2;ratioP2;P2;SDS_P1;SDS_P2;PMS_P1;PMS_P2;Temp;Humidity;BMP_temperature;BMP_pressure;BME280_temperature;BME280_humidity;BME280_pressure;Samples;Min_cycle;Max_cycle;Signal;HPM_P1;HPM_P2
2022/04/08 00:00:18;;;;;;;1.53;1.10;;;;;;;4.22;78.78;96019.77;1681109;83;21175;-62
2022/04/08 00:02:46;;;;;;;2.77;1.30;;;;;;;4.16;78.92;96023.33;1706914;82;20983;-62
2022/04/08 00:05:13;;;;;;;2.30;1.10;;;;;;;4.13;79.02;96023.58;1704085;82;20906;-62
2022/04/08 00:07:40;;;;;;;5.83;1.30;;;;;;;4.13;79.20;96030.84;1701443;82;20987;-63
2022/04/08 00:10:08;;;;;;;1.42;0.93;;;;;;;4.17;79.30;96023.22;1726275;82;21524;-63
2022/04/08 00:12:35;;;;;;;1.12;0.90;;;;;;;4.23;79.37;96024.02;1717851;82;21081;-62
2022/04/08 00:15:03;;;;;;;1.10;1.00;;;;;;;4.28;79.31;96022.80;1720936;82;21042;-62
2022/04/08 00:17:30;;;;;;;3.95;1.22;;;;;;;4.32;79.26;96015.17;1718457;82;21074;-62
2022/04/08 00:19:57;;;;;;;3.93;1.20;;;;;;;4.35;79.24;96012.34;1717526;83;21058;-62
2022/04/08 00:22:24;;;;;;;1.75;1.10;;;;;;;4.37;79.25;96018.17;1714019;82;20991;-62
2022/04/08 00:24:51;;;;;;;5.60;1.00;;;;;;;4.39;79.27;96014.53;1717214;83;21263;-62
2022/04/08 00:27:17;;;;;;;7.45;1.52;;;;;;;4.41;79.29;96017.00;1710044;83;21138;-63
2022/04/08 00:29:44;;;;;;;1.77;0.90;;;;;;;4.44;79.27;96016.27;1720193;83;21023;-62
2022/04/08 00:32:11;;;;;;;1.55;1.20;;;;;;;4.46;79.23;96014.39;1708445;82;21503;-62
2022/04/08 00:34:38;;;;;;;;;;;;;;;4.49;79.24;96019.78;1722642;82;20939;-62
2022/04/08 00:37:05;;;;;;;2.47;0.90;;;;;;;4.50;79.21;96013.66;1710446;83;22271;-62
2022/04/08 00:39:31;;;;;;;5.10;1.27;;;;;;;4.51;79.23;96017.05;1720418;83;21159;-62
2022/04/08 00:42:01;;;;;;;2.40;0.93;;;;;;;4.52;79.19;96016.94;1714248;83;20908;-62
2022/04/08 00:44:29;;;;;;;1.80;1.20;;;;;;;4.55;79.21;96010.23;1711179;83;21069;-62
2022/04/08 00:46:56;;;;;;;2.37;1.00;;;;;;;4.54;79.16;95999.56;1695502;84;21006;-63
2022/04/08 00:49:22;;;;;;;7.83;1.20;;;;;;;4.55;79.07;96003.77;1680898;84;21291;-62
2022/04/08 00:51:50;;;;;;;2.00;1.03;;;;;;;4.55;79.08;96003.77;1715816;83;21006;-62
2022/04/08 00:54:18;;;;;;;3.77;0.90;;;;;;;4.55;79.08;96003.77;1725167;82;20962;-62
2022/04/08 00:56:45;;;;;;;2.72;0.80;;;;;;;4.57;79.05;96013.99;1718689;83;21055;-62
2022/04/08 00:59:11;;;;;;;1.72;0.68;;;;;;;4.56;79.07;96005.40;1719947;81;21029;-62
2022/04/08 01:01:38;;;;;;;1.72;0.90;;;;;;;4.56;79.03;96007.17;1710628;82;21137;-63
2022/04/08 01:04:06;;;;;;;3.50;1.00;;;;;;;4.57;79.02;95994.14;1718159;82;20984;-62
2022/04/08 01:06:33;;;;;;;4.10;1.07;;;;;;;4.58;79.00;95990.59;1680887;84;21063;-62
2022/04/08 01:09:01;;;;;;;2.12;1.15;;;;;;;4.59;79.02;95984.47;1710145;82;21008;-62
2022/04/08 01:11:28;;;;;;;4.60;1.22;;;;;;;4.59;79.01;95984.47;1680184;84;21041;-62
2022/04/08 01:13:55;;;;;;;3.83;1.00;;;;;;;4.59;78.97;95990.12;1722485;83;21578;-62
2022/04/08 01:16:22;;;;;;;2.52;1.12;;;;;;;4.59;78.96;95986.24;1720439;82;21034;-62
2022/04/08 01:18:49;;;;;;;;;;;;;;;4.59;78.99;95972.84;1701184;82;21649;-63
2022/04/08 01:21:16;;;;;;;2.80;1.07;;;;;;;4.60;78.94;95988.72;1710418;82;21024;-62
2022/04/08 01:23:47;;;;;;;2.07;0.87;;;;;;;4.60;78.96;95971.92;1682860;83;21077;-62
2022/04/08 01:26:13;;;;;;;2.37;1.10;;;;;;;4.61;78.93;95981.77;1685008;84;21473;-63
2022/04/08 01:28:42;;;;;;;4.10;1.30;;;;;;;4.61;78.89;95986.95;1692514;82;21559;-62
2022/04/08 01:31:08;;;;;;;3.22;1.22;;;;;;;4.59;78.86;95967.68;1712023;82;21338;-62
2022/04/08 01:33:35;;;;;;;2.35;1.17;;;;;;;4.55;78.78;95971.48;1712646;82;21600;-62
2022/04/08 01:36:02;;;;;;;2.20;1.10;;;;;;;4.49;78.70;95960.37;1721839;82;21004;-62
2022/04/08 01:38:29;;;;;;;2.60;1.32;;;;;;;4.40;78.66;95963.72;1709673;82;21068;-62
2022/04/08 01:40:55;;;;;;;1.37;1.05;;;;;;;4.32;78.70;95967.40;1687702;83;21065;-62
2022/04/08 01:43:22;;;;;;;4.75;1.50;;;;;;;4.22;78.71;95966.84;1708907;82;21017;-62
2022/04/08 01:45:49;;;;;;;2.00;1.07;;;;;;;4.15;78.70;95973.46;1718987;83;21835;-63
2022/04/08 01:48:15;;;;;;;4.12;1.07;;;;;;;4.06;78.80;95963.05;1668852;84;21025;-63
2022/04/08 01:50:42;;;;;;;3.87;1.20;;;;;;;4.00;78.81;95966.94;1710180;82;21996;-62
2022/04/08 01:53:09;;;;;;;4.10;1.20;;;;;;;3.95;78.91;95969.06;1711235;82;21054;-62
2022/04/08 01:55:36;;;;;;;3.07;1.23;;;;;;;3.94;79.00;95963.56;1680415;84;21013;-62
2022/04/08 01:58:03;;;;;;;3.08;1.42;;;;;;;3.92;78.94;95969.31;1716217;82;21510;-62
2022/04/08 02:00:31;;;;;;;3.22;1.55;;;;;;;3.90;79.03;95968.64;1710369;81;20977;-62
2022/04/08 02:02:57;;;;;;;3.02;1.30;;;;;;;3.92;79.11;95973.19;1713429;82;21507;-62
2022/04/08 02:05:25;;;;;;;3.52;2.33;;;;;;;3.95;79.13;95972.94;1707619;82;20998;-62
2022/04/08 02:07:53;;;;;;;2.12;1.07;;;;;;;3.97;79.13;95977.52;1683253;83;21569;-62
2022/04/08 02:10:20;;;;;;;1.55;0.90;;;;;;;4.02;79.09;95980.55;1712296;82;21095;-62
2022/04/08 02:12:47;;;;;;;2.27;1.20;;;;;;;4.07;79.10;95970.68;1714292;82;21093;-63
2022/04/08 02:15:14;;;;;;;1.87;1.12;;;;;;;4.09;79.03;95970.54;1710720;82;21124;-62
2022/04/08 02:17:40;;;;;;;3.92;1.75;;;;;;;4.12;79.11;95979.35;1710424;83;21000;-63
2022/04/08 02:20:09;;;;;;;2.40;1.23;;;;;;;4.13;79.11;95980.50;1723588;81;21090;-62
2022/04/08 02:22:36;;;;;;;1.62;1.00;;;;;;;4.17;79.08;95976.75;1719367;82;21541;-63
2022/04/08 02:26:31;;;;;;;5.22;0.98;;;;;;;4.23;79.11;95983.98;1821738;77;22687;-61
2022/04/08 02:28:59;;;;;;;3.97;1.33;;;;;;;4.19;78.99;95978.70;1804135;78;20996;-61
2022/04/08 02:31:26;;;;;;;3.12;1.60;;;;;;;4.20;79.04;95975.65;1796790;78;21542;-61
2022/04/08 02:33:53;;;;;;;2.50;1.20;;;;;;;4.19;79.08;95978.70;1811321;78;20971;-61
2022/04/08 02:36:19;;;;;;;6.10;1.40;;;;;;;4.23;79.11;95978.83;1816484;77;20994;-61
2022/04/08 02:38:46;;;;;;;3.17;1.27;;;;;;;4.26;79.15;95978.57;1813583;78;21471;-62
2022/04/08 02:41:13;;;;;;;1.92;1.20;;;;;;;4.28;79.15;95977.61;1802202;78;20950;-61
2022/04/08 02:43:40;;;;;;;2.50;1.35;;;;;;;4.32;79.25;95989.35;1803829;78;21183;-61
2022/04/08 02:46:08;;;;;;;3.00;1.27;;;;;;;4.30;79.53;95993.81;1810559;78;20981;-62
2022/04/08 02:48:35;;;;;;;2.08;1.20;;;;;;;4.30;79.53;95993.81;1817960;77;21672;-61
2022/04/08 02:51:01;;;;;;;1.80;1.17;;;;;;;4.26;79.35;95986.80;1820994;77;20926;-62
2022/04/08 02:53:28;;;;;;;2.40;1.37;;;;;;;4.21;79.42;95987.16;1812739;77;20929;-61
2022/04/08 02:55:54;;;;;;;3.92;1.57;;;;;;;4.18;79.47;95988.70;1826668;78;20977;-61
2022/04/08 02:58:22;;;;;;;2.00;1.40;;;;;;;4.13;79.60;95993.41;1793550;79;21493;-61
2022/04/08 03:00:48;;;;;;;2.77;1.22;;;;;;;4.10;79.68;95996.25;1779282;79;20973;-61
2022/04/08 03:03:15;;;;;;;2.83;1.20;;;;;;;4.07;79.66;95987.94;1769419;80;20978;-61
2022/04/08 03:05:42;;;;;;;4.15;1.30;;;;;;;4.05;79.67;96000.95;1770588;81;21005;-62
2022/04/08 03:08:10;;;;;;;2.00;1.10;;;;;;;4.00;79.76;96006.47;1764149;81;21028;-61
2022/04/08 03:10:40;;;;;;;3.52;1.37;;;;;;;3.96;79.91;96001.70;1768710;79;21770;-62
2022/04/08 03:13:06;;;;;;;3.55;1.17;;;;;;;3.94;80.02;96006.97;1764691;79;21012;-63
2022/04/08 03:15:33;;;;;;;3.55;1.20;;;;;;;3.92;80.10;96000.28;1763461;81;20944;-63
2022/04/08 03:17:59;;;;;;;2.52;1.30;;;;;;;3.90;80.22;95994.45;1757183;81;21043;-63
2022/04/08 03:20:26;;;;;;;3.42;1.22;;;;;;;3.87;80.22;95993.41;1752896;79;21425;-63
2022/04/08 03:22:53;;;;;;;3.80;1.45;;;;;;;3.86;80.41;95996.44;1745955;81;20993;-63
2022/04/08 03:25:20;;;;;;;2.67;1.50;;;;;;;3.87;80.35;95992.12;1748240;80;21082;-63
2022/04/08 03:27:46;;;;;;;1.85;1.10;;;;;;;3.88;80.42;96004.06;1768305;80;20959;-63
2022/04/08 03:30:13;;;;;;;2.90;1.27;;;;;;;3.88;80.57;95998.91;1743625;80;20969;-63
2022/04/08 03:32:40;;;;;;;1.87;1.13;;;;;;;3.89;80.55;95996.19;1752234;80;21419;-63
2022/04/08 03:35:08;;;;;;;1.40;0.93;;;;;;;3.89;80.68;95993.61;1752698;79;21530;-63
2022/04/08 03:37:35;;;;;;;2.47;1.50;;;;;;;3.92;80.66;95995.12;1721660;82;21515;-63
2022/04/08 03:40:02;;;;;;;3.83;1.00;;;;;;;3.92;80.75;95999.00;1720174;82;21057;-63
2022/04/08 03:42:28;;;;;;;1.75;0.95;;;;;;;3.92;80.84;96001.58;1733749;82;21077;-63
2022/04/08 03:44:55;;;;;;;2.10;1.07;;;;;;;3.93;80.86;96010.98;1735598;82;21468;-63
2022/04/08 03:47:22;;;;;;;3.67;1.25;;;;;;;3.90;80.93;96007.36;1723836;81;20979;-63
2022/04/08 03:49:49;;;;;;;2.22;1.07;;;;;;;3.90;80.97;95994.45;1730647;82;28786;-63
2022/04/08 03:52:18;;;;;;;2.98;0.93;;;;;;;3.88;81.05;95993.75;1744663;80;20996;-63
2022/04/08 03:54:44;;;;;;;1.20;0.93;;;;;;;3.85;81.18;95996.09;1731061;80;21009;-63
2022/04/08 03:57:11;;;;;;;3.33;1.12;;;;;;;3.86;81.17;96003.36;1726456;81;22136;-63
2022/04/08 03:59:38;;;;;;;4.17;0.90;;;;;;;3.82;81.43;95995.05;1722830;82;20983;-63
2022/04/08 04:02:05;;;;;;;0.90;0.90;;;;;;;3.83;81.61;96001.84;1719355;82;20971;-63
2022/04/08 04:04:32;;;;;;;1.62;0.75;;;;;;;3.87;81.44;95992.12;1722428;82;21057;-63
2022/04/08 04:06:59;;;;;;;1.40;1.10;;;;;;;3.89;81.39;95985.86;1720397;82;21113;-63
2022/04/08 04:09:29;;;;;;;1.37;0.90;;;;;;;3.90;81.59;95997.03;1718696;81;22242;-63
2022/04/08 04:11:56;;;;;;;1.85;0.95;;;;;;;3.93;81.64;95996.78;1720368;81;20995;-62
2022/04/08 04:14:23;;;;;;;1.45;0.80;;;;;;;3.95;81.71;95997.45;1727314;82;21053;-63
2022/04/08 04:16:49;;;;;;;2.15;0.98;;;;;;;3.97;81.62;95991.71;1715548;82;21606;-65
2022/04/08 04:19:17;;;;;;;0.90;0.50;;;;;;;3.97;81.72;95995.58;1719188;82;20998;-63
2022/04/08 04:21:44;;;;;;;1.10;0.72;;;;;;;3.98;81.66;96023.87;1728214;82;21246;-63
2022/04/08 04:24:10;;;;;;;1.40;0.90;;;;;;;3.99;81.80;96038.40;1720356;82;21113;-62
2022/04/08 04:26:37;;;;;;;1.80;0.80;;;;;;;3.99;81.71;96042.75;1728140;81;21772;-62
2022/04/08 04:29:04;;;;;;;0.78;0.60;;;;;;;3.97;81.69;96067.85;1726566;82;21108;-63
2022/04/08 04:31:31;;;;;;;0.60;0.50;;;;;;;3.94;81.68;96083.58;1721651;82;21647;-62
2022/04/08 04:33:57;;;;;;;2.97;0.80;;;;;;;3.78;81.26;96105.44;1715936;81;21527;-62
2022/04/08 04:36:24;;;;;;;1.20;0.88;;;;;;;3.78;81.26;96105.44;1736136;80;21550;-63
2022/04/08 04:38:51;;;;;;;3.20;1.10;;;;;;;3.72;81.33;96126.53;1730547;81;21009;-62
2022/04/08 04:41:18;;;;;;;2.53;0.70;;;;;;;3.65;81.27;96101.34;1729472;81;20954;-63
2022/04/08 04:43:45;;;;;;;3.62;0.70;;;;;;;3.53;81.12;96123.75;1732640;81;21147;-62
2022/04/08 04:46:11;;;;;;;4.80;0.90;;;;;;;3.42;81.12;96132.30;1740328;81;21415;-62
2022/04/08 04:48:38;;;;;;;2.92;0.80;;;;;;;3.33;81.20;96136.39;1738594;81;20939;-62
2022/04/08 04:51:05;;;;;;;2.67;0.70;;;;;;;3.27;81.23;96147.14;1737649;80;21099;-64
2022/04/08 04:53:31;;;;;;;1.30;0.60;;;;;;;3.21;81.32;96154.52;1731226;81;21109;-62
2022/04/08 04:55:59;;;;;;;3.03;0.90;;;;;;;3.15;81.32;96150.65;1745563;81;20958;-61
2022/04/08 04:58:26;;;;;;;1.77;0.55;;;;;;;3.09;81.35;96174.31;1749195;81;21060;-62
2022/04/08 05:00:53;;;;;;;1.77;0.70;;;;;;;3.04;81.37;96177.21;1738889;81;21010;-62
2022/04/08 05:03:19;;;;;;;2.02;0.70;;;;;;;3.00;81.40;96180.97;1737038;81;21567;-62
2022/04/08 05:05:48;;;;;;;2.12;0.72;;;;;;;3.00;81.35;96180.97;1746038;81;21018;-62
2022/04/08 05:08:15;;;;;;;2.30;0.80;;;;;;;2.98;81.29;96185.88;1744656;81;21049;-62
2022/04/08 05:10:42;;;;;;;2.85;0.68;;;;;;;2.96;81.32;96191.59;1742569;81;21119;-62
2022/04/08 05:13:08;;;;;;;1.40;0.50;;;;;;;2.97;81.35;96199.67;1739000;81;21621;-62
2022/04/08 05:15:38;;;;;;;1.10;0.53;;;;;;;2.95;81.25;96197.70;1731767;81;21009;-62
2022/04/08 05:18:05;;;;;;;2.85;0.80;;;;;;;2.93;81.31;96202.12;1737650;81;21037;-62
2022/04/08 05:20:33;;;;;;;2.72;0.70;;;;;;;2.89;81.28;96213.95;1733496;81;20954;-61
2022/04/08 05:23:01;;;;;;;1.35;0.62;;;;;;;2.88;81.31;96216.16;1745167;81;21130;-62
2022/04/08 05:25:31;;;;;;;2.35;0.60;;;;;;;2.87;81.33;96211.95;1730638;79;22524;-62
2022/04/08 05:27:58;;;;;;;1.27;0.70;;;;;;;2.86;81.33;96243.80;1781510;80;21543;-61
2022/04/08 05:30:25;;;;;;;3.45;1.02;;;;;;;2.82;81.40;96243.66;1779798;80;20998;-62
2022/04/08 05:32:52;;;;;;;2.40;0.70;;;;;;;2.78;81.42;96253.84;1775307;79;21057;-62
2022/04/08 05:35:19;;;;;;;2.22;0.80;;;;;;;2.75;81.35;96248.91;1774308;80;21368;-62
2022/04/08 05:37:48;;;;;;;3.27;1.90;;;;;;;2.70;81.60;96279.31;1784506;80;20988;-62
2022/04/08 05:40:18;;;;;;;2.58;0.75;;;;;;;2.61;81.77;96283.36;1783628;80;20979;-63
2022/04/08 05:42:49;;;;;;;3.15;0.60;;;;;;;2.57;81.62;96283.67;1769269;80;20966;-63
2022/04/08 05:45:18;;;;;;;3.45;0.93;;;;;;;2.57;81.92;96299.94;1766016;80;21017;-63
2022/04/08 05:47:55;;;;;;;1.92;1.40;;;;;;;2.59;81.80;96294.70;1763707;79;21143;-63
2022/04/08 05:50:22;;;;;;;2.62;0.93;;;;;;;2.64;81.84;96305.52;1783385;79;20950;-62
2022/04/08 05:52:51;;;;;;;3.00;0.78;;;;;;;2.68;81.71;96310.80;1773126;80;20973;-64
2022/04/08 05:55:17;;;;;;;3.30;0.95;;;;;;;2.72;81.86;96334.14;1783442;79;20978;-62
2022/04/08 06:00:23;;;;;;;2.92;0.93;;;;;;;2.86;81.49;96303.07;1849633;75;22891;-61
2022/04/08 06:02:53;;;;;;;3.42;1.20;;;;;;;2.82;81.49;96324.81;1825394;76;21652;-62
2022/04/08 06:05:20;;;;;;;5.65;1.10;;;;;;;2.82;81.45;96331.25;1832777;76;22321;-62
2022/04/08 06:07:55;;;;;;;3.45;0.95;;;;;;;2.76;81.36;96340.70;1834804;78;20984;-62
2022/04/08 06:10:24;;;;;;;3.00;1.32;;;;;;;2.71;81.37;96345.35;1830423;77;21058;-61
2022/04/08 06:12:54;;;;;;;3.62;0.72;;;;;;;2.69;81.50;96345.95;1833902;77;21031;-61
2022/04/08 06:15:22;;;;;;;3.75;1.10;;;;;;;2.72;81.51;96359.90;1837234;76;20910;-61
2022/04/08 06:17:50;;;;;;;2.87;0.93;;;;;;;2.76;81.52;96358.74;1837138;78;21078;-62
2022/04/08 06:20:18;;;;;;;2.87;1.02;;;;;;;2.81;81.39;96379.86;1837043;77;20985;-61
2022/04/08 06:22:47;;;;;;;3.60;1.30;;;;;;;2.82;81.43;96380.67;1837895;76;20942;-61
2022/04/08 06:25:17;;;;;;;4.85;1.45;;;;;;;2.85;81.35;96394.16;1828270;78;21605;-61
2022/04/08 06:27:47;;;;;;;4.50;0.90;;;;;;;2.89;80.98;96389.17;1830844;78;21624;-63
2022/04/08 06:30:15;;;;;;;3.20;1.20;;;;;;;2.93;80.80;96377.36;1818137;77;21080;-62
2022/04/08 06:32:43;;;;;;;2.80;1.40;;;;;;;2.94;80.82;96389.30;1826056;77;21494;-62
2022/04/08 06:35:11;;;;;;;3.58;1.30;;;;;;;3.01;80.97;96409.39;1787908;77;20933;-62
2022/04/08 06:37:39;;;;;;;3.30;1.00;;;;;;;3.22;81.28;96407.09;1815836;76;21487;-62
2022/04/08 06:40:10;;;;;;;3.90;0.88;;;;;;;3.35;80.78;96410.42;1819395;76;20935;-62
2022/04/08 06:42:38;;;;;;;3.25;1.30;;;;;;;3.39;80.57;96405.04;1828372;76;21119;-62
2022/04/08 06:45:07;;;;;;;6.58;1.00;;;;;;;3.46;80.48;96417.87;1832903;77;21036;-63
2022/04/08 06:47:34;;;;;;;3.60;1.07;;;;;;;3.51;80.14;96399.02;1793120;78;20937;-62
2022/04/08 06:50:01;;;;;;;6.78;1.27;;;;;;;3.53;79.82;96410.06;1823872;76;21523;-62
2022/04/08 06:52:27;;;;;;;4.20;1.15;;;;;;;3.61;79.94;96423.68;1829657;76;21024;-62
2022/04/08 06:54:55;;;;;;;3.65;1.17;;;;;;;3.74;79.42;96421.40;1818887;76;21730;-62
2022/04/08 06:57:21;;;;;;;4.33;1.25;;;;;;;4.00;79.48;96432.39;1802437;76;28230;-62
2022/04/08 06:59:48;;;;;;;3.10;1.10;;;;;;;4.14;78.84;96428.80;1820383;76;20949;-62
2022/04/08 07:02:15;;;;;;;3.03;0.97;;;;;;;4.34;78.80;96436.83;1811833;77;21511;-62
2022/04/08 07:04:43;;;;;;;2.42;0.95;;;;;;;4.49;78.81;96453.78;1817720;77;20989;-62
2022/04/08 07:07:10;;;;;;;2.98;1.32;;;;;;;4.68;78.09;96467.45;1815815;77;20942;-62
2022/04/08 07:09:36;;;;;;;7.35;1.42;;;;;;;4.90;78.03;96444.64;1802539;77;20981;-62
2022/04/08 07:12:06;;;;;;;6.22;1.15;;;;;;;5.22;77.85;96478.86;1806612;77;20946;-62
2022/04/08 07:14:33;;;;;;;5.37;1.15;;;;;;;5.38;77.17;96462.50;1809075;77;21496;-62
2022/04/08 07:17:00;;;;;;;4.50;1.05;;;;;;;5.27;76.03;96453.47;1804515;78;21015;-62
2022/04/08 07:19:31;;;;;;;4.33;1.13;;;;;;;5.09;76.71;96486.25;1811205;77;21515;-63
2022/04/08 07:21:57;;;;;;;3.20;1.10;;;;;;;4.96;75.63;96470.05;1802093;77;21544;-62
2022/04/08 07:24:24;;;;;;;4.23;1.30;;;;;;;4.73;76.35;96494.22;1797383;77;20961;-63
2022/04/08 07:26:51;;;;;;;4.77;1.23;;;;;;;4.57;76.67;96499.25;1811530;77;20915;-62
2022/04/08 07:29:17;;;;;;;3.10;1.20;;;;;;;4.46;76.69;96513.44;1806852;78;21056;-63
2022/04/08 07:31:44;;;;;;;3.47;1.17;;;;;;;4.23;76.86;96465.59;1799275;78;21436;-62
2022/04/08 07:34:10;;;;;;;2.33;0.83;;;;;;;4.41;76.56;96512.95;1800364;78;20969;-62
2022/04/08 07:36:37;;;;;;;5.03;1.37;;;;;;;4.52;76.88;96558.19;1801728;78;21444;-62
2022/04/08 07:39:05;;;;;;;4.17;1.40;;;;;;;4.70;76.25;96554.70;1810457;78;20938;-63
2022/04/08 07:41:32;;;;;;;3.12;1.00;;;;;;;4.77;75.87;96552.52;1810657;77;20954;-62
2022/04/08 07:43:59;;;;;;;1.90;0.98;;;;;;;4.88;76.05;96548.19;1819853;77;21901;-62
2022/04/08 07:46:25;;;;;;;4.53;1.10;;;;;;;5.02;75.27;96539.39;1800632;77;20997;-62
2022/04/08 07:48:52;;;;;;;4.23;1.03;;;;;;;5.13;74.82;96536.81;1800714;77;21024;-61
2022/04/08 07:51:19;;;;;;;5.43;1.00;;;;;;;5.06;73.50;96548.55;1803148;77;21593;-62
2022/04/08 07:53:45;;;;;;;2.87;0.88;;;;;;;4.99;74.01;96555.14;1818264;77;21052;-62
2022/04/08 07:56:12;;;;;;;4.58;1.30;;;;;;;5.00;74.34;96538.67;1812513;77;21058;-66
2022/04/08 07:58:39;;;;;;;5.92;1.52;;;;;;;5.08;73.98;96567.37;1811466;77;20946;-62
2022/04/08 08:01:08;;;;;;;3.57;1.00;;;;;;;5.07;73.99;96570.91;1828240;76;21000;-62
2022/04/08 08:03:34;;;;;;;3.58;1.20;;;;;;;5.03;74.10;96573.34;1817745;76;20993;-62
2022/04/08 08:06:03;;;;;;;4.58;1.27;;;;;;;5.05;74.19;96593.46;1829988;76;21572;-62
2022/04/08 08:08:30;;;;;;;3.40;1.20;;;;;;;5.01;73.98;96604.95;1829064;76;21027;-62
2022/04/08 08:10:57;;;;;;;7.17;1.45;;;;;;;4.97;73.36;96593.20;1826276;76;21499;-62
2022/04/08 08:13:27;;;;;;;3.93;1.20;;;;;;;4.71;72.98;96617.93;1832037;76;21065;-62
2022/04/08 08:15:54;;;;;;;3.27;1.10;;;;;;;4.63;73.34;96616.37;1824373;76;20938;-63
2022/04/08 08:18:22;;;;;;;4.65;1.07;;;;;;;4.77;73.73;96627.47;1824945;76;20980;-62
2022/04/08 08:20:49;;;;;;;3.92;1.12;;;;;;;5.19;74.32;96613.12;1770262;80;21060;-62
2022/04/08 08:23:16;;;;;;;2.15;0.70;;;;;;;5.64;74.31;96625.27;1768585;78;21053;-62
2022/04/08 08:25:44;;;;;;;4.43;1.30;;;;;;;6.08;74.27;96631.38;1782295;78;20954;-64
2022/04/08 08:28:11;;;;;;;6.12;1.10;;;;;;;6.45;74.22;96645.68;1769266;79;22168;-63
2022/04/08 08:30:38;;;;;;;5.22;1.72;;;;;;;6.68;73.51;96622.27;1761265;79;21009;-65
2022/04/08 08:33:06;;;;;;;4.10;1.25;;;;;;;6.59;72.91;96626.43;1787904;79;21468;-62
2022/04/08 08:35:34;;;;;;;5.45;1.32;;;;;;;6.63;72.37;96627.81;1799052;79;20911;-63
2022/04/08 08:38:01;;;;;;;4.87;1.30;;;;;;;6.62;72.70;96648.70;1795869;79;20967;-62
2022/04/08 08:40:32;;;;;;;5.28;1.85;;;;;;;6.76;72.87;96641.92;1782415;79;21909;-62
2022/04/08 08:43:02;;;;;;;4.78;1.87;;;;;;;6.98;72.87;96628.52;1789638;79;21059;-62
2022/04/08 08:45:34;;;;;;;4.87;1.27;;;;;;;7.15;72.17;96643.52;1793747;79;21431;-62
2022/04/08 08:48:03;;;;;;;3.65;1.37;;;;;;;7.27;71.38;96667.63;1789751;79;20914;-62
2022/04/08 08:50:31;;;;;;;3.45;1.30;;;;;;;7.47;71.12;96645.20;1781209;79;21012;-63
2022/04/08 08:53:01;;;;;;;4.20;1.65;;;;;;;7.64;71.24;96654.98;1792749;79;21049;-63
2022/04/08 08:55:31;;;;;;;6.35;1.70;;;;;;;7.87;70.54;96647.02;1790245;79;21063;-64
2022/04/08 08:57:57;;;;;;;3.77;1.20;;;;;;;7.94;70.03;96676.73;1782061;79;21055;-63
2022/04/08 09:00:24;;;;;;;4.65;1.40;;;;;;;7.89;69.28;96678.89;1796049;79;21088;-63
2022/04/08 09:02:51;;;;;;;7.37;1.92;;;;;;;7.95;69.44;96688.76;1793313;79;20937;-62
2022/04/08 09:05:24;;;;;;;4.12;1.40;;;;;;;7.98;68.41;96677.65;1789860;79;21065;-63
2022/04/08 09:08:00;;;;;;;3.90;1.50;;;;;;;8.15;68.32;96676.20;1793609;79;20964;-63
2022/04/08 09:10:37;;;;;;;6.65;1.60;;;;;;;8.35;66.84;96719.97;1793603;79;21128;-63
2022/04/08 09:13:07;;;;;;;4.03;1.37;;;;;;;8.35;66.84;96719.97;1798802;79;22653;-63
2022/04/08 09:15:37;;;;;;;4.30;1.80;;;;;;;8.30;65.13;96724.74;1801494;79;22428;-63
2022/04/08 09:18:13;;;;;;;6.55;2.27;;;;;;;8.20;64.83;96716.08;1799211;79;21740;-62
2022/04/08 09:20:46;;;;;;;4.25;1.25;;;;;;;8.17;65.15;96721.05;1779085;79;21616;-64
2022/04/08 09:23:16;;;;;;;5.72;1.40;;;;;;;8.20;64.00;96716.89;1781877;79;21087;-66
2022/04/08 09:25:43;;;;;;;4.60;1.70;;;;;;;8.14;63.90;96738.21;1782730;79;21073;-63
2022/04/08 09:28:17;;;;;;;7.33;1.62;;;;;;;8.14;63.90;96738.21;1778586;79;21000;-64
2022/04/08 09:30:55;;;;;;;4.92;1.50;;;;;;;8.08;62.55;96762.94;1787026;78;20967;-64
2022/04/08 09:33:26;;;;;;;3.80;1.30;;;;;;;8.14;64.08;96788.89;1779113;79;21157;-63
2022/04/08 09:35:56;;;;;;;4.25;1.60;;;;;;;7.78;60.44;96787.10;1752921;79;21793;-62
2022/04/08 09:38:26;;;;;;;6.25;1.32;;;;;;;7.58;62.77;96791.34;1778864;79;21027;-63
2022/04/08 09:41:08;;;;;;;4.10;1.37;;;;;;;7.57;62.65;96820.05;1786680;79;22297;-63
2022/04/08 09:43:36;;;;;;;4.47;1.30;;;;;;;7.45;61.43;96826.21;1791489;79;20996;-62
2022/04/08 09:46:17;;;;;;;8.58;1.50;;;;;;;7.06;60.30;96832.37;1788207;79;20954;-62
2022/04/08 09:48:44;;;;;;;4.40;1.00;;;;;;;6.86;59.75;96823.08;1677940;84;22223;-61
2022/04/08 09:51:21;;;;;;;;;;;;;;;6.65;60.69;96826.05;1683248;84;21183;-63
2022/04/08 09:53:58;;;;;;;9.15;1.87;;;;;;;6.50;58.77;96853.50;1655988;84;20670;-61
2022/04/08 09:56:27;;;;;;;9.77;1.63;;;;;;;6.26;60.64;96863.13;1671993;84;21151;-61
2022/04/08 09:59:17;;;;;;;9.70;2.80;;;;;;;6.24;60.60;96871.48;1681829;84;21112;-61
2022/04/08 10:01:47;;;;;;;5.30;1.87;;;;;;;6.30;60.15;96867.13;1678623;84;21439;-62
2022/04/08 10:04:14;;;;;;;6.58;1.95;;;;;;;6.41;60.50;96863.73;1649655;85;21454;-61
2022/04/08 10:06:43;;;;;;;8.60;1.60;;;;;;;6.57;60.72;96878.95;1681147;84;21076;-61
2022/04/08 10:09:13;;;;;;;5.92;1.57;;;;;;;6.70;60.32;96868.00;1666088;85;21645;-62
2022/04/08 10:12:09;;;;;;;6.45;1.75;;;;;;;6.63;59.11;96859.03;1680202;83;21087;-62
2022/04/08 10:15:03;;;;;;;7.37;1.70;;;;;;;6.65;59.62;96884.37;1678006;83;21472;-61
2022/04/08 10:17:29;;;;;;;9.15;1.45;;;;;;;7.06;60.57;96860.91;1682907;83;21096;-62
2022/04/08 10:20:20;;;;;;;6.03;1.80;;;;;;;7.23;59.05;96874.66;1680251;83;21515;-62
2022/04/08 10:22:48;;;;;;;5.58;1.90;;;;;;;7.12;58.88;96895.45;1677209;83;20997;-62
2022/04/08 10:25:17;;;;;;;6.15;2.10;;;;;;;7.01;58.50;96892.86;1716206;79;21027;-62
2022/04/08 10:27:45;;;;;;;8.75;1.65;;;;;;;7.07;58.51;96889.78;1783858;78;21461;-61
2022/04/08 10:30:21;;;;;;;4.78;1.40;;;;;;;7.14;58.53;96915.14;1769684;79;20982;-62
2022/04/08 10:33:00;;;;;;;3.30;1.40;;;;;;;7.23;58.39;96910.18;1768450;79;21071;-62
2022/04/08 10:35:27;;;;;;;10.60;2.30;;;;;;;7.04;57.75;96922.45;1768888;80;20942;-65
2022/04/08 10:38:06;;;;;;;4.37;1.22;;;;;;;7.17;57.91;96923.16;1779510;78;26634;-66
2022/04/08 10:40:36;;;;;;;5.45;1.47;;;;;;;7.53;58.47;96936.77;1761728;79;21664;-63
2022/04/08 10:43:12;;;;;;;5.55;1.22;;;;;;;7.75;57.82;96938.00;1778265;79;20969;-65
2022/04/08 10:45:37;;;;;;;5.53;1.80;;;;;;;7.79;56.59;96938.13;1778050;78;20997;-63
2022/04/08 10:48:14;;;;;;;4.37;1.30;;;;;;;7.75;57.24;96935.41;1785057;79;20988;-62
2022/04/08 10:50:42;;;;;;;6.78;1.60;;;;;;;7.90;57.49;96931.22;1787696;79;20989;-63
2022/04/08 10:53:12;;;;;;;6.97;1.87;;;;;;;8.14;56.82;96940.92;1793357;79;21466;-62
2022/04/08 10:55:56;;;;;;;5.78;1.92;;;;;;;8.11;56.75;96933.38;1764973;79;21012;-62
2022/04/08 10:58:35;;;;;;;6.00;2.10;;;;;;;8.11;56.90;96930.78;1789669;79;21068;-62
2022/04/08 11:01:22;;;;;;;4.80;1.45;;;;;;;8.02;56.27;96949.73;1793997;79;20973;-62
2022/04/08 11:04:05;;;;;;;5.17;1.42;;;;;;;7.91;55.95;96945.88;1769691;79;20985;-62
2022/04/08 11:06:36;;;;;;;7.53;1.72;;;;;;;7.78;55.48;96968.92;1801297;78;21494;-62
2022/04/08 11:09:14;;;;;;;7.85;1.80;;;;;;;7.76;55.22;96981.23;1793892;79;21583;-61
2022/04/08 11:11:47;;;;;;;6.62;2.05;;;;;;;7.78;55.20;96950.73;1795278;79;21029;-62
2022/04/08 11:14:13;;;;;;;6.40;1.87;;;;;;;7.74;55.04;96977.92;1797238;79;21419;-62
2022/04/08 11:16:41;;;;;;;9.05;2.45;;;;;;;7.81;55.39;96999.88;1792143;78;21494;-62
2022/04/08 11:19:20;;;;;;;10.10;2.67;;;;;;;7.62;54.71;96982.80;1785138;78;22418;-62
2022/04/08 11:21:48;;;;;;;7.95;1.57;;;;;;;7.60;55.30;96990.70;1767060;79;21572;-61
2022/04/08 11:24:19;;;;;;;17.65;2.58;;;;;;;7.78;55.14;96992.30;1760275;79;20957;-66
2022/04/08 11:26:54;;;;;;;6.40;1.67;;;;;;;7.87;55.11;96985.58;1774545;78;21005;-62
2022/04/08 11:29:24;;;;;;;12.63;2.08;;;;;;;8.00;55.03;96992.72;1770838;79;21068;-62
2022/04/08 11:31:53;;;;;;;8.20;2.87;;;;;;;8.33;55.33;97009.62;1755874;81;22001;-61
2022/04/08 11:34:25;;;;;;;5.80;1.80;;;;;;;8.50;54.52;96980.49;1762140;79;21127;-62
2022/04/08 11:36:57;;;;;;;9.45;1.57;;;;;;;8.49;53.94;96993.16;1797658;78;21069;-62
2022/04/08 11:39:26;;;;;;;6.33;1.12;;;;;;;8.61;53.91;96992.13;1797991;78;21005;-61
2022/04/08 11:42:01;;;;;;;3.33;1.50;;;;;;;8.58;53.71;97000.19;1792473;78;20942;-62
2022/04/08 11:44:25;;;;;;;5.97;1.80;;;;;;;8.40;53.51;97014.23;1762347;78;21028;-62
2022/04/08 11:46:52;;;;;;;6.12;1.92;;;;;;;8.26;53.62;97014.47;1791313;78;21004;-62
2022/04/08 11:49:21;;;;;;;;;;;;;;;8.27;53.57;97020.86;1799602;78;20989;-63
2022/04/08 11:51:47;;;;;;;5.58;1.82;;;;;;;8.39;53.13;97006.55;1784337;78;20096;-63